Allen Jay, North Carolina
Current Conditions -  °F | °C
As of 10:54 PM on Saturday 25 Oct 2014 (Local Time) from KGSO Reporting Station
Clear Clear  
Wind Chill: 14°   Ceiling: Unl
Heat Index: 14°   Visibility: 10mi
Dew Point:   Wind: 5mph
Humidity: 51%   Direction: 210°SSW
Pressure: 29.9"   Gusts: NA
Location:  35.9136°N, 79.9465°W
Report Text: KGSO 260254Z 21004KT 10SM CLR 14/04 A2990 RMK AO2 SLP119 T01390039 58006
Loading
Personal Weather Stations






























Interactive Weather Map
Tropical Storm Tracking
New forecast layout! Learn more

10-Day Weather Forecast

Advertisements
Track Severe Weather on mobile